FAD121 OEMA-OEJN
Flight info
| Callsign | FAD121 |
|---|---|
| Flight time | N/A |
| Altitude | 24000 |
| Route | SISUD B544 NOMDA |
| Aircraft | A320/M-SDE3FGHIRWY/LB1 |
Departure
| Time | N/A |
|---|---|
| Airport | Prince Mohammad Bin Abdulaziz Airport (OEMA) |
Arrival
| Time | 2026-04-29 10:24 |
|---|---|
| Airport | King Abdulaziz International Airport (OEJN) |
| Time | Latitude | Longitude | Altitude | Speed | Heading |
|---|---|---|---|---|---|
| 2026-04-29 09:47 | 23.21057 | 39.24065 | 23946 ft | 426 kts | 202° |
| 2026-04-29 09:47 | 23.18225 | 39.23093 | 23954 ft | 426 kts | 202° |
| 2026-04-29 09:47 | 23.15397 | 39.22122 | 23953 ft | 427 kts | 202° |
| 2026-04-29 09:48 | 23.12566 | 39.21152 | 23951 ft | 427 kts | 202° |
| 2026-04-29 09:48 | 23.09733 | 39.20181 | 23945 ft | 427 kts | 202° |
| 2026-04-29 09:48 | 23.06935 | 39.19223 | 23939 ft | 427 kts | 202° |
| 2026-04-29 09:48 | 23.04101 | 39.18253 | 23940 ft | 427 kts | 202° |
| 2026-04-29 09:49 | 23.01260 | 39.17280 | 23896 ft | 428 kts | 202° |
| 2026-04-29 09:49 | 22.98426 | 39.16309 | 23643 ft | 426 kts | 202° |
| 2026-04-29 09:49 | 22.95597 | 39.15342 | 23419 ft | 425 kts | 202° |
| 2026-04-29 09:49 | 22.92778 | 39.14375 | 23187 ft | 424 kts | 202° |
| 2026-04-29 09:50 | 22.89973 | 39.13412 | 22935 ft | 422 kts | 202° |
| 2026-04-29 09:50 | 22.87175 | 39.12456 | 22684 ft | 420 kts | 202° |
| 2026-04-29 09:50 | 22.84392 | 39.11503 | 22462 ft | 419 kts | 202° |
| 2026-04-29 09:50 | 22.81613 | 39.10567 | 22219 ft | 419 kts | 200° |
| 2026-04-29 09:51 | 22.78743 | 39.09942 | 21979 ft | 423 kts | 192° |
| 2026-04-29 09:51 | 22.75791 | 39.09795 | 21729 ft | 427 kts | 184° |
| 2026-04-29 09:51 | 22.72865 | 39.09874 | 21476 ft | 425 kts | 184° |
| 2026-04-29 09:51 | 22.69912 | 39.09954 | 21234 ft | 423 kts | 184° |
| 2026-04-29 09:52 | 22.66971 | 39.10042 | 20981 ft | 422 kts | 184° |
| 2026-04-29 09:52 | 22.64047 | 39.10139 | 20730 ft | 420 kts | 184° |
| 2026-04-29 09:52 | 22.61171 | 39.10245 | 20504 ft | 407 kts | 182° |
| 2026-04-29 09:52 | 22.58396 | 39.10735 | 20271 ft | 403 kts | 169° |
| 2026-04-29 09:53 | 22.55829 | 39.11926 | 20016 ft | 402 kts | 155° |
| 2026-04-29 09:53 | 22.53612 | 39.13755 | 19771 ft | 401 kts | 140° |
| 2026-04-29 09:53 | 22.51878 | 39.16106 | 19539 ft | 400 kts | 126° |
| 2026-04-29 09:53 | 22.50727 | 39.18830 | 19292 ft | 398 kts | 110° |
| 2026-04-29 09:54 | 22.50205 | 39.21714 | 19042 ft | 394 kts | 99° |
| 2026-04-29 09:54 | 22.49729 | 39.24587 | 18791 ft | 382 kts | 110° |
| 2026-04-29 09:54 | 22.48867 | 39.27256 | 18535 ft | 371 kts | 117° |
| 2026-04-29 09:54 | 22.47819 | 39.29770 | 18282 ft | 362 kts | 123° |
| 2026-04-29 09:55 | 22.46478 | 39.32030 | 18042 ft | 353 kts | 133° |
| 2026-04-29 09:55 | 22.44963 | 39.34095 | 17794 ft | 348 kts | 138° |
| 2026-04-29 09:55 | 22.43242 | 39.35884 | 17563 ft | 339 kts | 149° |
| 2026-04-29 09:55 | 22.41281 | 39.37225 | 17334 ft | 329 kts | 162° |
| 2026-04-29 09:56 | 22.39157 | 39.38014 | 17093 ft | 318 kts | 175° |
| 2026-04-29 09:56 | 22.36993 | 39.38235 | 16938 ft | 309 kts | 188° |
| 2026-04-29 09:56 | 22.34889 | 39.37933 | 16978 ft | 303 kts | 199° |
| 2026-04-29 09:56 | 22.32921 | 39.37182 | 16968 ft | 299 kts | 210° |
| 2026-04-29 09:57 | 22.31156 | 39.36027 | 16790 ft | 295 kts | 220° |
| 2026-04-29 09:57 | 22.29671 | 39.34521 | 16539 ft | 291 kts | 231° |
| 2026-04-29 09:57 | 22.28514 | 39.32737 | 16289 ft | 290 kts | 242° |
| 2026-04-29 09:57 | 22.27684 | 39.30755 | 16043 ft | 290 kts | 246° |
| 2026-04-29 09:58 | 22.26809 | 39.28803 | 15789 ft | 289 kts | 241° |
| 2026-04-29 09:58 | 22.25755 | 39.26953 | 15533 ft | 289 kts | 236° |
| 2026-04-29 09:58 | 22.24536 | 39.25226 | 15297 ft | 289 kts | 231° |
| 2026-04-29 09:58 | 22.23170 | 39.23633 | 15061 ft | 289 kts | 226° |
| 2026-04-29 09:59 | 22.21671 | 39.22178 | 14930 ft | 290 kts | 223° |
| 2026-04-29 09:59 | 22.20171 | 39.20768 | 14938 ft | 290 kts | 223° |
| 2026-04-29 09:59 | 22.18651 | 39.19330 | 14942 ft | 292 kts | 223° |
| 2026-04-29 09:59 | 22.17124 | 39.17887 | 14943 ft | 292 kts | 223° |
| 2026-04-29 10:00 | 22.15593 | 39.16439 | 14942 ft | 292 kts | 223° |
| 2026-04-29 10:00 | 22.14068 | 39.14998 | 14943 ft | 292 kts | 223° |
| 2026-04-29 10:00 | 22.12540 | 39.13557 | 14936 ft | 292 kts | 223° |
| 2026-04-29 10:00 | 22.10962 | 39.12179 | 14924 ft | 293 kts | 218° |
| 2026-04-29 10:01 | 22.09248 | 39.10980 | 14923 ft | 294 kts | 213° |
| 2026-04-29 10:01 | 22.07415 | 39.09974 | 14694 ft | 296 kts | 207° |
| 2026-04-29 10:01 | 22.05492 | 39.09172 | 14443 ft | 296 kts | 203° |
| 2026-04-29 10:01 | 22.03557 | 39.08416 | 14193 ft | 295 kts | 203° |
| 2026-04-29 10:02 | 22.01625 | 39.07659 | 13941 ft | 295 kts | 203° |
| 2026-04-29 10:02 | 21.99701 | 39.06906 | 13690 ft | 294 kts | 203° |
| 2026-04-29 10:02 | 21.97780 | 39.06153 | 13438 ft | 293 kts | 203° |
| 2026-04-29 10:02 | 21.95864 | 39.05400 | 13203 ft | 293 kts | 203° |
| 2026-04-29 10:03 | 21.93953 | 39.04650 | 12989 ft | 292 kts | 202° |
| 2026-04-29 10:03 | 21.92045 | 39.03903 | 12913 ft | 291 kts | 202° |
| 2026-04-29 10:03 | 21.90135 | 39.03156 | 12923 ft | 292 kts | 202° |
| 2026-04-29 10:03 | 21.88249 | 39.02420 | 12925 ft | 293 kts | 202° |
| 2026-04-29 10:04 | 21.86358 | 39.01681 | 12918 ft | 282 kts | 202° |
| 2026-04-29 10:04 | 21.84589 | 39.00995 | 12919 ft | 259 kts | 202° |
| 2026-04-29 10:04 | 21.82946 | 39.00357 | 12935 ft | 247 kts | 203° |
| 2026-04-29 10:04 | 21.81337 | 38.99724 | 12940 ft | 245 kts | 203° |
| 2026-04-29 10:05 | 21.79738 | 38.99100 | 12929 ft | 244 kts | 201° |
| 2026-04-29 10:05 | 21.78064 | 38.98751 | 12925 ft | 248 kts | 186° |
| 2026-04-29 10:05 | 21.76324 | 38.98886 | 12784 ft | 254 kts | 172° |
| 2026-04-29 10:05 | 21.74639 | 38.99482 | 12543 ft | 255 kts | 163° |
| 2026-04-29 10:06 | 21.72981 | 39.00154 | 12290 ft | 254 kts | 163° |
| 2026-04-29 10:06 | 21.71327 | 39.00821 | 12035 ft | 253 kts | 163° |
| 2026-04-29 10:06 | 21.69685 | 39.01480 | 11789 ft | 252 kts | 163° |
| 2026-04-29 10:06 | 21.68047 | 39.02138 | 11538 ft | 251 kts | 163° |
| 2026-04-29 10:07 | 21.66417 | 39.02792 | 11288 ft | 250 kts | 163° |
| 2026-04-29 10:07 | 21.64806 | 39.03433 | 11039 ft | 249 kts | 163° |
| 2026-04-29 10:07 | 21.63180 | 39.04071 | 10803 ft | 249 kts | 163° |
| 2026-04-29 10:07 | 21.61555 | 39.04704 | 10562 ft | 248 kts | 163° |
| 2026-04-29 10:08 | 21.59933 | 39.05335 | 10302 ft | 248 kts | 163° |
| 2026-04-29 10:08 | 21.58316 | 39.05965 | 10092 ft | 246 kts | 163° |
| 2026-04-29 10:08 | 21.56704 | 39.06595 | 10017 ft | 246 kts | 163° |
| 2026-04-29 10:08 | 21.55091 | 39.07226 | 10016 ft | 247 kts | 163° |
| 2026-04-29 10:09 | 21.53476 | 39.07857 | 10011 ft | 247 kts | 163° |
| 2026-04-29 10:09 | 21.51860 | 39.08491 | 10010 ft | 247 kts | 162° |
| 2026-04-29 10:09 | 21.50248 | 39.09127 | 10013 ft | 246 kts | 162° |
| 2026-04-29 10:09 | 21.48642 | 39.09761 | 10016 ft | 246 kts | 162° |
| 2026-04-29 10:10 | 21.47035 | 39.10397 | 10007 ft | 246 kts | 162° |
| 2026-04-29 10:10 | 21.45429 | 39.11033 | 10014 ft | 246 kts | 162° |
| 2026-04-29 10:10 | 21.43823 | 39.11672 | 10024 ft | 246 kts | 162° |
| 2026-04-29 10:10 | 21.42221 | 39.12307 | 10026 ft | 246 kts | 162° |
| 2026-04-29 10:11 | 21.40615 | 39.12941 | 10018 ft | 246 kts | 162° |
| 2026-04-29 10:11 | 21.39003 | 39.13575 | 9920 ft | 247 kts | 162° |
| 2026-04-29 10:11 | 21.37396 | 39.14206 | 9817 ft | 246 kts | 162° |
| 2026-04-29 10:11 | 21.35808 | 39.14833 | 9712 ft | 246 kts | 162° |
| 2026-04-29 10:12 | 21.34205 | 39.15468 | 9587 ft | 245 kts | 162° |
| 2026-04-29 10:12 | 21.32604 | 39.16101 | 9460 ft | 245 kts | 162° |
| 2026-04-29 10:12 | 21.30992 | 39.16737 | 9088 ft | 249 kts | 161° |
| 2026-04-29 10:12 | 21.29348 | 39.17387 | 8614 ft | 255 kts | 161° |
| 2026-04-29 10:13 | 21.28241 | 39.17825 | 8280 ft | 257 kts | 161° |
| 2026-04-29 10:13 | 21.26575 | 39.18499 | 7768 ft | 254 kts | 157° |
| 2026-04-29 10:13 | 21.25213 | 39.19656 | 7281 ft | 252 kts | 124° |
| 2026-04-29 10:13 | 21.24664 | 39.21392 | 6791 ft | 248 kts | 90° |
| 2026-04-29 10:14 | 21.25053 | 39.23163 | 6307 ft | 248 kts | 65° |
| 2026-04-29 10:14 | 21.25730 | 39.24862 | 6004 ft | 244 kts | 69° |
| 2026-04-29 10:14 | 21.26319 | 39.26549 | 5749 ft | 240 kts | 67° |
| 2026-04-29 10:14 | 21.27262 | 39.27986 | 5435 ft | 236 kts | 37° |
| 2026-04-29 10:15 | 21.28743 | 39.28676 | 5122 ft | 233 kts | 4° |
| 2026-04-29 10:15 | 21.30323 | 39.28456 | 4812 ft | 231 kts | 339° |
| 2026-04-29 10:15 | 21.31829 | 39.27859 | 4564 ft | 228 kts | 338° |
| 2026-04-29 10:15 | 21.33278 | 39.27286 | 4425 ft | 215 kts | 338° |
| 2026-04-29 10:16 | 21.34648 | 39.26744 | 4333 ft | 204 kts | 338° |
| 2026-04-29 10:16 | 21.35937 | 39.26223 | 4202 ft | 192 kts | 338° |
| 2026-04-29 10:16 | 21.37157 | 39.25736 | 4085 ft | 182 kts | 338° |
| 2026-04-29 10:16 | 21.38317 | 39.25278 | 3952 ft | 173 kts | 338° |
| 2026-04-29 10:17 | 21.39427 | 39.24841 | 3823 ft | 166 kts | 338° |
| 2026-04-29 10:17 | 21.40487 | 39.24425 | 3693 ft | 159 kts | 338° |
| 2026-04-29 10:17 | 21.41499 | 39.24026 | 3554 ft | 155 kts | 338° |
| 2026-04-29 10:17 | 21.42532 | 39.23619 | 3154 ft | 166 kts | 338° |
| 2026-04-29 10:18 | 21.43676 | 39.23168 | 2735 ft | 177 kts | 339° |
| 2026-04-29 10:18 | 21.44796 | 39.22729 | 2719 ft | 166 kts | 339° |
| 2026-04-29 10:18 | 21.45843 | 39.22317 | 2716 ft | 156 kts | 338° |
| 2026-04-29 10:18 | 21.46856 | 39.21920 | 2720 ft | 154 kts | 338° |
| 2026-04-29 10:19 | 21.47880 | 39.21517 | 2736 ft | 163 kts | 338° |
| 2026-04-29 10:19 | 21.48995 | 39.21077 | 2728 ft | 176 kts | 338° |
| 2026-04-29 10:19 | 21.50152 | 39.20620 | 2731 ft | 180 kts | 339° |
| 2026-04-29 10:19 | 21.51349 | 39.20150 | 2744 ft | 184 kts | 339° |
| 2026-04-29 10:20 | 21.52556 | 39.19676 | 2743 ft | 183 kts | 338° |
| 2026-04-29 10:20 | 21.53706 | 39.19222 | 2689 ft | 170 kts | 339° |
| 2026-04-29 10:20 | 21.54784 | 39.18797 | 2533 ft | 166 kts | 339° |
| 2026-04-29 10:20 | 21.55855 | 39.18376 | 2342 ft | 162 kts | 338° |
| 2026-04-29 10:21 | 21.56890 | 39.17968 | 2144 ft | 153 kts | 339° |
| 2026-04-29 10:21 | 21.57869 | 39.17583 | 1945 ft | 147 kts | 339° |
| 2026-04-29 10:21 | 21.58812 | 39.17212 | 1764 ft | 140 kts | 339° |
| 2026-04-29 10:21 | 21.59714 | 39.16857 | 1576 ft | 136 kts | 339° |
| 2026-04-29 10:22 | 21.60597 | 39.16508 | 1400 ft | 134 kts | 340° |
| 2026-04-29 10:22 | 21.61471 | 39.16164 | 1217 ft | 134 kts | 340° |
| 2026-04-29 10:22 | 21.62342 | 39.15820 | 1041 ft | 133 kts | 340° |
| 2026-04-29 10:22 | 21.63216 | 39.15475 | 854 ft | 134 kts | 339° |
| 2026-04-29 10:23 | 21.64088 | 39.15131 | 681 ft | 133 kts | 340° |
| 2026-04-29 10:23 | 21.64960 | 39.14787 | 505 ft | 133 kts | 340° |
| 2026-04-29 10:23 | 21.65827 | 39.14445 | 327 ft | 132 kts | 340° |
| 2026-04-29 10:23 | 21.66690 | 39.14104 | 161 ft | 132 kts | 339° |
| 2026-04-29 10:24 | 21.67526 | 39.13768 | 37 ft | 120 kts | 340° |
| 2026-04-29 10:24 | 21.67890 | 39.13627 | 34 ft | 1 kts | 340° |
| 2026-04-29 10:24 | 21.67931 | 39.13611 | 33 ft | 24 kts | 340° |
| 2026-04-29 10:24 | 21.68213 | 39.13493 | 30 ft | 60 kts | 338° |
| 2026-04-29 10:25 | 21.68611 | 39.13413 | 28 ft | 36 kts | 13° |
| 2026-04-29 10:25 | 21.68677 | 39.13434 | 28 ft | 0 kts | 17° |
| 2026-04-29 10:26 | 21.68701 | 39.13440 | 28 ft | 11 kts | 12° |
| 2026-04-29 10:26 | 21.68835 | 39.13459 | 28 ft | 27 kts | 2° |
| 2026-04-29 10:26 | 21.69046 | 39.13389 | 27 ft | 35 kts | 340° |
| 2026-04-29 10:27 | 21.69384 | 39.13337 | 26 ft | 18 kts | 70° |
| 2026-04-29 10:27 | 21.69475 | 39.13462 | 25 ft | 20 kts | 352° |
| 2026-04-29 10:27 | 21.69583 | 39.13416 | 25 ft | 21 kts | 341° |
| 2026-04-29 10:28 | 21.69747 | 39.13351 | 24 ft | 29 kts | 339° |
| 2026-04-29 10:28 | 21.69870 | 39.13321 | 24 ft | 10 kts | 78° |
| 2026-04-29 10:28 | 21.69869 | 39.13388 | 24 ft | 8 kts | 74° |
| 2026-04-29 10:28 | 21.69878 | 39.13411 | 24 ft | 0 kts | 62° |